Time;durP1;ratioP1;P1;durP2;ratioP2;P2;SDS_P1;SDS_P2;PMS_P1;PMS_P2;Temp;Humidity;BMP_temperature;BMP_pressure;BME280_temperature;BME280_humidity;BME280_pressure;Samples;Min_cycle;Max_cycle;Signal;HPM_P1;HPM_P2
2021/06/27 00:02:27;;;;;;;5.03;2.90;;;21.20;93.40;;;;;;5088266;28;20241;-75
2021/06/27 00:04:53;;;;;;;2.90;2.70;;;21.20;93.50;;;;;;5087343;28;21025;-76
2021/06/27 00:07:21;;;;;;;4.57;3.40;;;21.20;93.70;;;;;;5088284;28;20199;-75
2021/06/27 00:09:48;;;;;;;2.97;2.77;;;21.20;94.10;;;;;;5088882;28;20279;-75
2021/06/27 00:12:14;;;;;;;2.93;2.83;;;21.10;94.20;;;;;;5088663;28;20264;-75
2021/06/27 00:14:41;;;;;;;3.77;2.63;;;21.10;94.30;;;;;;5088393;28;20199;-76
2021/06/27 00:17:08;;;;;;;3.07;2.87;;;21.10;94.40;;;;;;5088459;28;20242;-76
2021/06/27 00:19:34;;;;;;;5.07;3.10;;;21.10;94.60;;;;;;5088149;28;20223;-76
2021/06/27 00:22:01;;;;;;;2.90;2.70;;;21.10;94.60;;;;;;5088488;28;20264;-74
2021/06/27 00:24:29;;;;;;;3.07;2.87;;;21.10;94.80;;;;;;5088505;28;20203;-74
2021/06/27 00:26:56;;;;;;;3.60;2.80;;;21.00;94.90;;;;;;5088641;28;20280;-74
2021/06/27 00:29:23;;;;;;;4.03;3.73;;;21.00;94.80;;;;;;5088497;28;20232;-74
2021/06/27 00:31:49;;;;;;;2.93;2.73;;;20.90;94.60;;;;;;5088502;28;20210;-74
2021/06/27 00:34:16;;;;;;;3.20;3.00;;;20.90;94.60;;;;;;5088529;28;20276;-74
2021/06/27 00:36:43;;;;;;;3.00;2.80;;;20.90;94.60;;;;;;5088258;28;20218;-74
2021/06/27 00:39:09;;;;;;;3.10;2.90;;;20.80;94.70;;;;;;5088376;28;20198;-75
2021/06/27 00:41:37;;;;;;;3.13;2.93;;;20.80;94.70;;;;;;5088028;28;20664;-75
2021/06/27 00:44:05;;;;;;;3.60;3.30;;;20.80;94.70;;;;;;5090331;28;20256;-74
2021/06/27 00:46:32;;;;;;;3.73;3.27;;;20.80;94.70;;;;;;5092133;28;20665;-74
2021/06/27 00:48:59;;;;;;;3.50;3.30;;;20.70;94.80;;;;;;5091989;28;20207;-74
2021/06/27 00:51:25;;;;;;;3.47;3.17;;;20.70;94.90;;;;;;5092003;28;20268;-74
2021/06/27 00:53:52;;;;;;;3.40;3.10;;;20.60;95.00;;;;;;5092032;28;20323;-75
2021/06/27 00:56:19;;;;;;;3.60;3.40;;;20.60;95.00;;;;;;5092012;28;20206;-73
2021/06/27 00:58:47;;;;;;;4.10;3.07;;;20.60;95.40;;;;;;5092314;28;20199;-74
2021/06/27 01:01:14;;;;;;;3.60;3.30;;;20.50;95.10;;;;;;5091935;28;20278;-73
2021/06/27 01:03:40;;;;;;;3.40;3.10;;;20.50;95.50;;;;;;5092073;28;20210;-74
2021/06/27 01:06:07;;;;;;;3.73;3.43;;;20.40;95.40;;;;;;5091357;28;20252;-74
2021/06/27 01:08:34;;;;;;;5.27;3.67;;;20.30;95.50;;;;;;5091335;28;20207;-74
2021/06/27 01:11:01;;;;;;;3.50;3.30;;;20.30;95.70;;;;;;5091516;28;20654;-74
2021/06/27 01:13:27;;;;;;;3.50;3.30;;;20.30;95.70;;;;;;5090988;28;20262;-74
2021/06/27 01:15:55;;;;;;;3.20;3.00;;;20.30;95.80;;;;;;5091197;28;20211;-74
2021/06/27 01:18:22;;;;;;;5.23;3.33;;;20.30;96.00;;;;;;5091635;28;20227;-77
2021/06/27 01:20:49;;;;;;;3.27;3.07;;;20.30;96.20;;;;;;5091723;28;20279;-76
2021/06/27 01:23:19;;;;;;;3.43;3.13;;;20.30;96.30;;;;;;5091664;28;20262;-76
2021/06/27 01:25:49;;;;;;;3.53;3.33;;;20.30;96.50;;;;;;5091692;28;20206;-76
2021/06/27 01:28:16;;;;;;;3.53;3.10;;;20.30;96.70;;;;;;5091870;28;20207;-76
2021/06/27 01:30:43;;;;;;;5.30;3.23;;;20.30;96.80;;;;;;5091625;28;20211;-76
2021/06/27 01:33:13;;;;;;;4.10;3.80;;;20.30;96.70;;;;;;5091539;28;20210;-76
2021/06/27 01:35:40;;;;;;;4.27;3.80;;;20.20;96.70;;;;;;5091230;28;20764;-76
2021/06/27 01:38:06;;;;;;;3.73;3.43;;;20.20;96.70;;;;;;5091341;28;20206;-76
2021/06/27 01:40:35;;;;;;;3.73;3.43;;;20.20;96.70;;;;;;5091271;28;20637;-76
2021/06/27 01:43:06;;;;;;;4.00;3.70;;;20.10;96.60;;;;;;5091059;28;21001;-76
2021/06/27 01:45:33;;;;;;;4.07;3.77;;;20.10;96.70;;;;;;5091275;28;20211;-76
2021/06/27 01:48:01;;;;;;;4.00;3.70;;;20.00;96.70;;;;;;5091434;28;20275;-76
2021/06/27 01:50:29;;;;;;;4.50;4.10;;;20.00;96.80;;;;;;5091108;28;20199;-76
2021/06/27 01:52:58;;;;;;;3.87;3.57;;;20.00;96.80;;;;;;5091177;28;20206;-76
2021/06/27 01:55:26;;;;;;;3.90;3.60;;;20.00;96.90;;;;;;5089891;28;20207;-76
2021/06/27 01:57:55;;;;;;;4.07;3.77;;;19.90;97.30;;;;;;5090745;28;20762;-76
2021/06/27 02:00:24;;;;;;;3.50;3.30;;;19.90;97.10;;;;;;5090877;28;20238;-75
2021/06/27 02:02:51;;;;;;;3.90;3.53;;;19.90;97.00;;;;;;5090917;28;20261;-74
2021/06/27 02:05:19;;;;;;;4.93;3.37;;;19.90;96.90;;;;;;5090821;28;20210;-75
2021/06/27 02:07:46;;;;;;;3.90;3.60;;;19.80;96.90;;;;;;5090847;28;20206;-74
2021/06/27 02:10:16;;;;;;;3.70;3.50;;;19.80;96.90;;;;;;5090787;28;20256;-75
2021/06/27 02:12:43;;;;;;;4.13;3.73;;;19.80;97.00;;;;;;5090444;28;20206;-75
2021/06/27 02:15:14;;;;;;;3.60;3.30;;;19.70;96.90;;;;;;5090932;28;20207;-75
2021/06/27 02:17:50;;;;;;;4.83;3.60;;;19.70;96.90;;;;;;5090539;28;20244;-75
2021/06/27 02:20:17;;;;;;;4.50;4.10;;;19.70;97.30;;;;;;5090407;28;20305;-74
2021/06/27 02:22:44;;;;;;;4.30;4.00;;;19.60;97.10;;;;;;5090411;28;20210;-75
2021/06/27 02:25:11;;;;;;;4.20;3.90;;;19.50;97.20;;;;;;5090629;28;20288;-75
2021/06/27 02:27:38;;;;;;;4.03;3.73;;;19.50;97.30;;;;;;5090332;28;20252;-75
2021/06/27 02:30:06;;;;;;;3.63;3.43;;;19.50;97.30;;;;;;5090444;28;20335;-74
2021/06/27 02:32:35;;;;;;;4.00;3.63;;;19.50;97.30;;;;;;5090426;28;20203;-75
2021/06/27 02:35:02;;;;;;;3.70;3.40;;;19.50;97.40;;;;;;5090326;28;20266;-74
2021/06/27 02:37:28;;;;;;;3.90;3.67;;;19.40;97.40;;;;;;5089853;28;20726;-75
2021/06/27 02:39:55;;;;;;;4.13;3.60;;;19.40;97.50;;;;;;5090061;28;20206;-74
2021/06/27 02:42:22;;;;;;;3.80;3.53;;;19.40;97.50;;;;;;5090178;28;20198;-74
2021/06/27 02:44:48;;;;;;;3.70;3.50;;;19.30;97.60;;;;;;5090061;28;20259;-73
2021/06/27 02:47:16;;;;;;;3.70;3.47;;;19.40;97.60;;;;;;5090021;28;20206;-73
2021/06/27 02:49:44;;;;;;;4.73;3.13;;;19.30;97.70;;;;;;5089867;28;20263;-73
2021/06/27 02:52:11;;;;;;;3.57;3.37;;;19.30;97.80;;;;;;5089767;28;20256;-73
2021/06/27 02:54:37;;;;;;;5.20;3.73;;;19.20;97.80;;;;;;5089829;28;20202;-75
2021/06/27 02:57:05;;;;;;;3.97;3.67;;;19.20;97.90;;;;;;5089665;28;20258;-74
2021/06/27 02:59:32;;;;;;;4.07;3.70;;;19.20;98.00;;;;;;5089670;28;20276;-74
2021/06/27 03:01:58;;;;;;;4.07;3.83;;;19.20;98.10;;;;;;5089376;28;20623;-74
2021/06/27 03:04:25;;;;;;;5.17;3.97;;;19.10;98.20;;;;;;5089764;28;20256;-74
2021/06/27 03:06:53;;;;;;;4.20;3.80;;;19.10;98.30;;;;;;5089414;28;20206;-74
2021/06/27 03:09:19;;;;;;;4.10;3.70;;;19.10;98.40;;;;;;5089595;28;20680;-74
2021/06/27 03:11:46;;;;;;;4.93;3.83;;;19.10;98.50;;;;;;5089573;28;20214;-74
2021/06/27 03:14:13;;;;;;;4.17;3.73;;;19.10;98.50;;;;;;5089266;28;20669;-74
2021/06/27 03:16:39;;;;;;;4.40;4.10;;;19.10;98.50;;;;;;5089486;28;20264;-74
2021/06/27 03:19:06;;;;;;;3.90;3.67;;;19.00;98.50;;;;;;5089335;28;20256;-74
2021/06/27 03:21:33;;;;;;;4.00;3.70;;;19.00;98.50;;;;;;5089198;28;20237;-74
2021/06/27 03:24:01;;;;;;;4.17;3.87;;;19.00;98.50;;;;;;5089071;28;20665;-74
2021/06/27 03:26:27;;;;;;;4.47;4.17;;;18.90;98.60;;;;;;5089190;28;20271;-75
2021/06/27 03:28:54;;;;;;;4.17;3.77;;;18.80;98.70;;;;;;5089093;28;20716;-75
2021/06/27 03:31:20;;;;;;;4.37;3.97;;;18.90;98.90;;;;;;5089418;28;20206;-75
2021/06/27 03:33:47;;;;;;;4.80;4.30;;;18.90;98.90;;;;;;5089006;28;20268;-76
2021/06/27 03:36:14;;;;;;;3.60;3.40;;;18.90;98.90;;;;;;5089123;28;20226;-76
2021/06/27 03:38:46;;;;;;;3.87;3.60;;;18.90;99.00;;;;;;5089064;28;20268;-76
2021/06/27 03:41:19;;;;;;;5.20;3.93;;;18.90;99.10;;;;;;5088887;28;20720;-75
2021/06/27 03:43:46;;;;;;;4.30;4.00;;;18.90;99.20;;;;;;5088634;28;20597;-75
2021/06/27 03:46:13;;;;;;;4.20;3.90;;;18.90;99.30;;;;;;5089103;28;20203;-76
2021/06/27 03:48:40;;;;;;;4.07;3.77;;;18.90;99.30;;;;;;5089043;28;20207;-76
2021/06/27 03:51:07;;;;;;;5.50;4.27;;;18.90;99.40;;;;;;5089042;28;20275;-76
2021/06/27 03:53:34;;;;;;;4.77;4.00;;;18.90;99.40;;;;;;5088565;28;20746;-76
2021/06/27 03:56:00;;;;;;;4.27;3.90;;;18.90;99.50;;;;;;5088911;28;20203;-76
2021/06/27 03:58:29;;;;;;;4.43;4.00;;;18.90;99.50;;;;;;5088918;28;20211;-76
2021/06/27 04:00:56;;;;;;;5.63;4.10;;;18.90;99.50;;;;;;5088465;28;20262;-76
2021/06/27 04:03:22;;;;;;;6.67;4.20;;;19.00;99.40;;;;;;5089066;28;20248;-76
2021/06/27 04:05:49;;;;;;;5.43;4.50;;;19.00;99.50;;;;;;5088317;28;20680;-76
2021/06/27 04:08:16;;;;;;;4.73;4.30;;;18.90;99.50;;;;;;5088573;28;20202;-76
2021/06/27 04:10:42;;;;;;;4.50;4.10;;;19.00;99.60;;;;;;5088499;28;20323;-76
2021/06/27 04:13:09;;;;;;;4.40;4.10;;;18.90;99.70;;;;;;5088796;28;20264;-74
2021/06/27 04:15:37;;;;;;;5.47;5.07;;;19.00;99.80;;;;;;5088599;28;20260;-75
2021/06/27 04:18:04;;;;;;;4.37;4.07;;;18.90;99.80;;;;;;5087916;28;20207;-74
2021/06/27 04:20:30;;;;;;;5.43;4.87;;;18.90;99.90;;;;;;5088351;28;20207;-74
2021/06/27 04:22:57;;;;;;;6.13;4.40;;;19.00;99.90;;;;;;5088636;28;20647;-74
2021/06/27 04:25:24;;;;;;;4.60;4.20;;;19.00;99.90;;;;;;5088600;28;20252;-75
2021/06/27 04:27:50;;;;;;;5.20;4.13;;;19.10;99.90;;;;;;5088497;28;20613;-75
2021/06/27 04:30:18;;;;;;;4.50;4.17;;;19.10;99.90;;;;;;5088454;28;20199;-74
2021/06/27 04:32:46;;;;;;;4.07;3.77;;;19.20;99.80;;;;;;5087876;28;20260;-74
2021/06/27 04:35:12;;;;;;;6.13;5.13;;;19.20;99.80;;;;;;5088532;28;20227;-74
2021/06/27 04:37:39;;;;;;;5.43;4.93;;;19.20;99.90;;;;;;5087955;28;20684;-75
2021/06/27 04:40:06;;;;;;;5.70;5.27;;;19.20;99.90;;;;;;5088442;28;20203;-74
2021/06/27 04:42:33;;;;;;;4.60;4.20;;;19.30;99.90;;;;;;5088148;28;20260;-75
2021/06/27 04:45:00;;;;;;;4.70;4.30;;;19.30;99.90;;;;;;5087886;28;20677;-74
2021/06/27 04:47:27;;;;;;;4.97;4.53;;;19.30;99.90;;;;;;5088177;28;20233;-74
2021/06/27 04:49:55;;;;;;;5.20;4.20;;;19.40;99.90;;;;;;5087945;28;20207;-75
2021/06/27 04:52:22;;;;;;;5.73;5.13;;;19.40;99.90;;;;;;5087820;28;20263;-74
2021/06/27 04:54:48;;;;;;;4.70;4.30;;;19.40;99.90;;;;;;5087992;28;20203;-74
2021/06/27 04:57:15;;;;;;;4.80;4.07;;;19.50;99.90;;;;;;5087503;28;20226;-74
2021/06/27 04:59:42;;;;;;;4.87;4.37;;;19.50;99.90;;;;;;5087591;28;20268;-75
2021/06/27 05:02:08;;;;;;;4.57;4.27;;;19.60;99.90;;;;;;5087720;28;20242;-74
2021/06/27 05:04:35;;;;;;;4.43;4.13;;;19.60;99.90;;;;;;5087540;28;20749;-75
2021/06/27 05:07:03;;;;;;;4.53;4.03;;;19.70;99.90;;;;;;5087493;28;20723;-74
2021/06/27 05:09:30;;;;;;;4.83;4.10;;;19.70;99.90;;;;;;5088034;28;20566;-74
2021/06/27 05:11:56;;;;;;;4.73;4.43;;;19.70;99.90;;;;;;5087833;28;20207;-74
2021/06/27 05:14:23;;;;;;;4.90;4.40;;;19.80;99.90;;;;;;5087801;28;20602;-75
2021/06/27 05:16:50;;;;;;;4.73;4.33;;;19.80;99.90;;;;;;5087449;28;20669;-74
2021/06/27 05:19:19;;;;;;;6.57;4.60;;;19.90;99.90;;;;;;5087736;28;20673;-77
2021/06/27 05:21:46;;;;;;;6.10;4.40;;;19.90;99.90;;;;;;5086940;28;20320;-76
2021/06/27 05:24:14;;;;;;;5.67;5.17;;;19.90;99.90;;;;;;5088088;28;20295;-77
2021/06/27 05:26:41;;;;;;;4.50;4.10;;;19.90;99.70;;;;;;5087600;28;20225;-77
2021/06/27 05:29:07;;;;;;;4.63;4.30;;;19.90;99.80;;;;;;5088099;28;20264;-77
2021/06/27 05:31:36;;;;;;;4.73;4.20;;;19.90;99.80;;;;;;5091249;28;20703;-76
2021/06/27 05:34:03;;;;;;;4.23;3.93;;;20.00;99.80;;;;;;5091546;28;20203;-74
2021/06/27 05:36:36;;;;;;;3.87;3.63;;;20.00;99.70;;;;;;5091205;28;20724;-74
2021/06/27 05:39:03;;;;;;;3.93;3.60;;;20.10;99.70;;;;;;5091189;28;20633;-75
2021/06/27 05:41:38;;;;;;;3.80;3.50;;;20.20;99.70;;;;;;5091340;28;20279;-76
2021/06/27 05:44:06;;;;;;;4.17;3.87;;;20.10;99.50;;;;;;5091558;28;20704;-77
2021/06/27 05:46:34;;;;;;;4.53;3.73;;;20.20;99.20;;;;;;5091321;28;20207;-74
2021/06/27 05:49:02;;;;;;;3.83;3.47;;;20.20;98.90;;;;;;5091115;28;20207;-73
2021/06/27 05:51:28;;;;;;;4.13;3.73;;;20.30;98.80;;;;;;5091089;28;20730;-73
2021/06/27 05:53:55;;;;;;;4.40;4.00;;;20.30;98.40;;;;;;5090968;28;20238;-73
2021/06/27 05:56:22;;;;;;;4.47;3.97;;;20.30;98.10;;;;;;5091045;28;20206;-76
2021/06/27 05:58:49;;;;;;;3.70;3.40;;;20.30;98.20;;;;;;5090270;28;20219;-76
2021/06/27 06:01:18;;;;;;;3.93;3.63;;;20.40;98.10;;;;;;5090652;28;20760;-76
2021/06/27 06:03:45;;;;;;;4.30;4.00;;;20.40;98.10;;;;;;5090959;28;20257;-76
2021/06/27 06:06:13;;;;;;;3.77;3.50;;;20.40;98.20;;;;;;5090845;28;20256;-76
2021/06/27 06:08:41;;;;;;;3.60;3.40;;;20.50;98.10;;;;;;5090629;28;20206;-76
2021/06/27 06:11:08;;;;;;;3.50;3.20;;;20.50;98.20;;;;;;5090506;28;20214;-76
2021/06/27 06:13:35;;;;;;;3.47;3.27;;;20.50;98.30;;;;;;5090717;28;20238;-76
2021/06/27 06:16:04;;;;;;;4.80;3.63;;;20.50;98.30;;;;;;5090740;28;20206;-76
2021/06/27 06:18:31;;;;;;;3.97;3.60;;;20.60;98.30;;;;;;5090216;28;20207;-76
2021/06/27 06:20:57;;;;;;;3.83;3.50;;;20.60;98.10;;;;;;5090683;28;20207;-75
2021/06/27 06:23:24;;;;;;;4.20;3.90;;;20.60;98.00;;;;;;5090680;28;20316;-75
2021/06/27 06:25:51;;;;;;;3.80;3.60;;;20.60;98.00;;;;;;5090389;28;20206;-75
2021/06/27 06:28:17;;;;;;;4.87;3.70;;;20.60;97.90;;;;;;5090525;28;20236;-75
2021/06/27 06:30:44;;;;;;;4.13;3.83;;;20.60;97.90;;;;;;5090287;28;20256;-74
2021/06/27 06:33:12;;;;;;;4.50;4.00;;;20.70;97.90;;;;;;5090288;28;20237;-74
2021/06/27 06:35:39;;;;;;;4.00;3.70;;;20.70;97.80;;;;;;5090200;28;20660;-74
2021/06/27 06:38:06;;;;;;;4.80;4.40;;;20.80;97.80;;;;;;5089828;28;20222;-74
2021/06/27 06:40:33;;;;;;;4.23;3.93;;;20.70;97.90;;;;;;5090081;28;20280;-77
2021/06/27 06:42:59;;;;;;;4.47;4.17;;;20.80;97.90;;;;;;5089710;28;20641;-77
2021/06/27 06:45:28;;;;;;;4.13;3.83;;;20.80;97.70;;;;;;5090303;28;20252;-77
2021/06/27 06:47:55;;;;;;;4.90;4.50;;;20.80;97.70;;;;;;5089923;28;20207;-77
2021/06/27 06:50:24;;;;;;;4.87;4.57;;;20.90;97.80;;;;;;5090167;28;20284;-77
2021/06/27 06:52:51;;;;;;;4.80;4.40;;;20.90;97.90;;;;;;5089987;28;20256;-77
2021/06/27 06:55:17;;;;;;;4.00;3.60;;;20.90;97.90;;;;;;5090138;28;20203;-76
2021/06/27 06:57:44;;;;;;;5.47;3.83;;;20.90;97.70;;;;;;5089570;28;20242;-76
2021/06/27 07:00:12;;;;;;;4.30;4.00;;;21.00;97.50;;;;;;5089456;28;20739;-74
2021/06/27 07:02:39;;;;;;;4.87;4.37;;;21.00;97.30;;;;;;5089048;28;20319;-75
2021/06/27 07:05:07;;;;;;;4.83;3.33;;;20.90;97.40;;;;;;5098200;28;20255;-74
2021/06/27 07:07:36;;;;;;;3.80;3.50;;;21.00;97.30;;;;;;5101310;28;20195;-73
2021/06/27 07:10:04;;;;;;;3.47;3.20;;;21.00;96.70;;;;;;5098557;28;20194;-73
2021/06/27 07:12:31;;;;;;;4.30;4.00;;;20.90;96.50;;;;;;5098828;28;20259;-75
2021/06/27 07:14:59;;;;;;;3.10;3.00;;;20.90;96.20;;;;;;5099126;28;20202;-75
2021/06/27 07:17:25;;;;;;;3.50;3.20;;;21.00;96.30;;;;;;5097729;28;20268;-75
2021/06/27 07:19:52;;;;;;;3.53;3.23;;;21.00;95.90;;;;;;5099600;28;20273;-73
2021/06/27 07:22:19;;;;;;;3.40;3.03;;;21.10;95.70;;;;;;5100179;28;20267;-73
2021/06/27 07:24:47;;;;;;;3.17;2.97;;;21.10;95.60;;;;;;5100171;28;20190;-73
2021/06/27 07:27:13;;;;;;;3.87;2.87;;;21.10;95.60;;;;;;5098436;28;20595;-73
2021/06/27 07:29:40;;;;;;;3.03;2.83;;;21.20;95.60;;;;;;5098454;28;20240;-72
2021/06/27 07:32:07;;;;;;;3.17;2.97;;;21.30;95.50;;;;;;5100142;28;20225;-73
2021/06/27 07:34:33;;;;;;;3.77;3.20;;;21.30;95.30;;;;;;5098440;28;20226;-74
2021/06/27 07:37:03;;;;;;;3.37;3.17;;;21.40;95.30;;;;;;5100638;28;21055;-77
2021/06/27 07:39:29;;;;;;;3.97;3.60;;;21.40;95.40;;;;;;5100129;28;20198;-77
2021/06/27 07:41:57;;;;;;;3.47;3.13;;;21.50;95.40;;;;;;5097170;28;20373;-77
2021/06/27 07:44:24;;;;;;;3.73;3.20;;;21.50;95.40;;;;;;5100163;28;20251;-77
2021/06/27 07:46:51;;;;;;;3.10;2.90;;;21.60;95.60;;;;;;5099971;28;20194;-77
2021/06/27 07:49:17;;;;;;;3.80;3.43;;;21.60;95.30;;;;;;5097247;28;20613;-76
2021/06/27 07:51:44;;;;;;;3.53;3.23;;;21.60;95.30;;;;;;5097255;28;20199;-76
2021/06/27 07:54:11;;;;;;;4.10;3.73;;;21.70;95.80;;;;;;5102503;28;20289;-73
2021/06/27 07:56:37;;;;;;;3.53;3.33;;;21.80;95.70;;;;;;5108568;28;20233;-74
2021/06/27 07:59:05;;;;;;;6.00;3.70;;;21.90;95.50;;;;;;5104470;28;20288;-73
2021/06/27 08:01:32;;;;;;;4.67;3.60;;;22.00;95.50;;;;;;5086702;28;20209;-74
2021/06/27 08:03:59;;;;;;;3.40;3.23;;;22.00;95.40;;;;;;5086510;28;20234;-73
2021/06/27 08:06:25;;;;;;;3.60;3.17;;;22.10;95.10;;;;;;5086847;28;20210;-73
2021/06/27 08:08:52;;;;;;;3.50;3.30;;;22.10;95.10;;;;;;5087173;28;20207;-74
2021/06/27 08:11:19;;;;;;;3.60;3.35;;;22.10;95.20;;;;;;5086916;28;20263;-73
2021/06/27 08:13:45;;;;;;;3.22;3.03;;;22.20;95.00;;;;;;5086489;28;20210;-75
2021/06/27 08:16:13;;;;;;;4.45;3.10;;;22.20;94.90;;;;;;5097644;28;20413;-75
2021/06/27 08:18:40;;;;;;;3.15;3.00;;;22.20;95.00;;;;;;5106521;28;20224;-73
2021/06/27 08:21:06;;;;;;;3.25;3.00;;;22.20;94.90;;;;;;5106442;28;20202;-74
2021/06/27 08:23:33;;;;;;;4.85;3.50;;;22.30;94.50;;;;;;5106004;28;20279;-74
2021/06/27 08:26:00;;;;;;;4.05;3.35;;;22.40;94.50;;;;;;5106018;28;20198;-75
2021/06/27 08:28:26;;;;;;;3.88;3.60;;;22.40;94.40;;;;;;5106300;28;20210;-74
2021/06/27 08:30:53;;;;;;;2.78;2.63;;;22.50;94.40;;;;;;5106158;28;20202;-74
2021/06/27 08:33:21;;;;;;;3.80;3.10;;;22.50;94.50;;;;;;5106298;28;20202;-74
2021/06/27 08:35:47;;;;;;;3.75;3.55;;;22.50;94.50;;;;;;5106284;28;20222;-74
2021/06/27 08:38:14;;;;;;;3.22;3.03;;;22.60;94.40;;;;;;5106531;28;20210;-74
2021/06/27 08:40:41;;;;;;;3.05;2.85;;;22.70;93.90;;;;;;5106203;28;20233;-74
2021/06/27 08:43:09;;;;;;;3.00;2.80;;;22.70;93.80;;;;;;5106352;28;20225;-74
2021/06/27 08:45:41;;;;;;;3.47;3.10;;;22.70;94.00;;;;;;5106375;28;20297;-74
2021/06/27 08:48:09;;;;;;;2.80;2.70;;;22.80;94.00;;;;;;5105966;28;20294;-74
2021/06/27 08:50:37;;;;;;;2.95;2.72;;;22.80;93.90;;;;;;5106579;28;20463;-74
2021/06/27 08:53:04;;;;;;;2.90;2.70;;;22.80;94.00;;;;;;5106070;28;20659;-74
2021/06/27 08:55:31;;;;;;;3.13;2.92;;;22.90;93.20;;;;;;5105957;28;20210;-75
2021/06/27 08:57:58;;;;;;;2.92;2.72;;;23.10;93.20;;;;;;5105555;28;20295;-74
2021/06/27 09:00:25;;;;;;;2.80;2.60;;;23.10;93.00;;;;;;5106181;28;20230;-75
2021/06/27 09:02:51;;;;;;;2.70;2.60;;;23.20;93.10;;;;;;5094691;28;20783;-75
2021/06/27 09:05:20;;;;;;;3.00;2.80;;;23.20;93.70;;;;;;5088087;28;20209;-74
2021/06/27 09:07:49;;;;;;;3.70;2.70;;;23.30;93.80;;;;;;5089448;28;20206;-74
2021/06/27 09:10:24;;;;;;;2.50;2.40;;;23.40;93.60;;;;;;5089595;28;20210;-74
2021/06/27 09:12:53;;;;;;;2.63;2.53;;;23.50;93.10;;;;;;5089501;28;20220;-74
2021/06/27 09:15:38;;;;;;;3.70;2.88;;;23.60;92.80;;;;;;5089399;28;20203;-75
2021/06/27 09:18:07;;;;;;;3.38;2.95;;;23.60;92.80;;;;;;5089443;28;20922;-75
2021/06/27 09:20:34;;;;;;;2.53;2.40;;;23.70;93.40;;;;;;5089476;28;20290;-75
2021/06/27 09:23:02;;;;;;;2.88;2.67;;;23.70;92.80;;;;;;5089381;28;20266;-74
2021/06/27 09:25:30;;;;;;;2.70;2.50;;;23.80;92.70;;;;;;5089711;28;20211;-75
2021/06/27 09:28:04;;;;;;;2.88;2.65;;;23.70;92.40;;;;;;5089692;28;20203;-75
2021/06/27 09:30:32;;;;;;;2.53;2.33;;;23.70;92.20;;;;;;5090060;28;20198;-74
2021/06/27 09:33:03;;;;;;;2.75;2.30;;;23.90;92.00;;;;;;5089523;28;20340;-75
2021/06/27 09:35:44;;;;;;;2.38;2.28;;;23.90;91.80;;;;;;5089079;28;20234;-75
2021/06/27 09:38:37;;;;;;;2.45;2.20;;;24.00;92.10;;;;;;5088895;28;20649;-75
2021/06/27 09:41:07;;;;;;;2.40;2.20;;;24.20;92.10;;;;;;5085929;28;20345;-75
2021/06/27 09:43:36;;;;;;;2.70;2.45;;;24.30;91.40;;;;;;5088696;28;20237;-76
2021/06/27 09:46:11;;;;;;;2.33;2.22;;;24.30;91.40;;;;;;5089176;28;20335;-74
2021/06/27 09:48:53;;;;;;;2.50;2.30;;;24.30;91.00;;;;;;5088902;28;21009;-75
2021/06/27 09:51:23;;;;;;;2.30;2.20;;;24.40;90.30;;;;;;5089200;28;20199;-75
2021/06/27 09:53:52;;;;;;;2.38;2.17;;;24.40;90.40;;;;;;5088945;28;20226;-75
2021/06/27 09:56:21;;;;;;;3.20;2.22;;;24.40;90.60;;;;;;5088552;28;20625;-75
2021/06/27 09:59:03;;;;;;;2.55;2.20;;;24.40;90.70;;;;;;5088333;28;20747;-75
2021/06/27 10:01:31;;;;;;;3.08;2.47;;;24.50;91.20;;;;;;5088449;28;20684;-75
2021/06/27 10:03:59;;;;;;;3.60;2.50;;;24.70;90.80;;;;;;5088636;28;20241;-75
2021/06/27 10:06:28;;;;;;;2.60;2.50;;;24.80;90.60;;;;;;5107642;28;20210;-75
2021/06/27 10:09:08;;;;;;;2.50;2.40;;;24.80;90.50;;;;;;5108791;27;20562;-75
2021/06/27 10:11:36;;;;;;;6.00;3.40;;;24.90;90.40;;;;;;5109329;28;20212;-75
2021/06/27 10:14:09;;;;;;;3.13;2.92;;;25.00;90.70;;;;;;5108910;28;20214;-75
2021/06/27 10:16:36;;;;;;;2.60;2.50;;;25.20;90.40;;;;;;5107752;28;20387;-76
2021/06/27 10:19:03;;;;;;;4.35;2.90;;;25.40;90.40;;;;;;5108447;28;20214;-75
2021/06/27 10:21:31;;;;;;;4.30;3.00;;;25.40;90.50;;;;;;5108318;28;20218;-76
2021/06/27 10:23:59;;;;;;;2.83;2.63;;;25.50;90.80;;;;;;5100461;28;20801;-75
2021/06/27 10:26:27;;;;;;;2.47;2.38;;;25.50;91.50;;;;;;5089501;28;20202;-75
2021/06/27 10:28:54;;;;;;;3.45;2.60;;;25.50;90.30;;;;;;5090598;28;20227;-74
2021/06/27 10:31:23;;;;;;;2.60;2.40;;;25.60;90.20;;;;;;5096156;28;20550;-74
2021/06/27 10:33:51;;;;;;;2.55;2.35;;;25.80;88.50;;;;;;5096956;28;20267;-74
2021/06/27 10:36:28;;;;;;;3.38;2.03;;;25.80;85.90;;;;;;5108080;28;20247;-73
2021/06/27 10:38:57;;;;;;;2.22;2.13;;;25.90;85.80;;;;;;5095953;28;20279;-74
2021/06/27 10:41:49;;;;;;;2.53;2.33;;;26.00;86.00;;;;;;5101544;28;20592;-74
2021/06/27 10:44:16;;;;;;;2.30;2.20;;;26.10;83.90;;;;;;5092509;28;20302;-74
2021/06/27 10:46:45;;;;;;;2.85;2.22;;;26.10;84.00;;;;;;5092946;28;20259;-74
2021/06/27 10:50:04;;;;;;;6.38;2.33;;;26.20;84.30;;;;;;5100872;28;20267;-74
2021/06/27 10:52:46;;;;;;;2.15;1.98;;;26.40;85.90;;;;;;5045134;28;20277;-75
2021/06/27 10:55:21;;;;;;;4.50;2.42;;;26.50;85.50;;;;;;5100664;28;20211;-74
2021/06/27 10:58:07;;;;;;;2.58;2.38;;;26.70;85.70;;;;;;5098259;28;20233;-75
2021/06/27 11:01:05;;;;;;;3.00;2.10;;;26.90;83.80;;;;;;5099924;27;20198;-74
2021/06/27 11:03:34;;;;;;;2.33;2.05;;;27.00;83.00;;;;;;5089582;28;20269;-75
2021/06/27 11:06:02;;;;;;;1.80;1.80;;;27.20;84.00;;;;;;5089303;28;20578;-74
2021/06/27 11:08:34;;;;;;;12.43;2.83;;;27.30;81.60;;;;;;5089333;28;20198;-75
2021/06/27 11:11:08;;;;;;;2.40;2.20;;;27.50;80.90;;;;;;5089534;28;20264;-74
2021/06/27 11:13:38;;;;;;;2.75;2.25;;;27.70;80.80;;;;;;5086822;28;20285;-75
2021/06/27 11:16:20;;;;;;;7.25;2.80;;;27.90;81.70;;;;;;5089478;28;20245;-74
2021/06/27 11:18:50;;;;;;;2.67;2.10;;;28.10;80.10;;;;;;5089063;28;20687;-74
2021/06/27 11:21:33;;;;;;;2.78;2.60;;;28.20;79.70;;;;;;5089377;28;20199;-74
2021/06/27 11:24:08;;;;;;;2.58;2.40;;;28.40;80.30;;;;;;5089098;28;20226;-75
2021/06/27 11:26:56;;;;;;;3.15;2.17;;;28.60;79.60;;;;;;5089300;28;20285;-74
2021/06/27 11:29:49;;;;;;;2.42;2.22;;;28.80;79.70;;;;;;5084536;28;20210;-75
2021/06/27 11:32:44;;;;;;;2.45;2.22;;;28.70;79.40;;;;;;5089320;28;20199;-75
2021/06/27 11:35:11;;;;;;;2.33;2.22;;;28.80;79.10;;;;;;5088952;28;20349;-74
2021/06/27 11:37:46;;;;;;;4.93;2.83;;;29.00;78.40;;;;;;5088883;28;20211;-75
2021/06/27 11:40:13;;;;;;;2.50;2.30;;;29.20;78.30;;;;;;5089176;28;20578;-74
2021/06/27 11:42:47;;;;;;;6.45;2.28;;;29.40;78.20;;;;;;5089099;28;20199;-75
2021/06/27 11:45:41;;;;;;;2.45;2.22;;;29.60;78.70;;;;;;5094016;27;20260;-75
2021/06/27 11:48:09;;;;;;;2.80;2.65;;;29.60;77.20;;;;;;5098620;27;20579;-74
2021/06/27 11:50:38;;;;;;;3.15;2.75;;;29.50;76.60;;;;;;5088723;28;20577;-75
2021/06/27 11:53:06;;;;;;;3.00;2.25;;;29.40;76.80;;;;;;5097923;28;20602;-74
2021/06/27 11:55:35;;;;;;;2.70;2.50;;;29.40;77.70;;;;;;5108274;28;20283;-74
2021/06/27 11:58:02;;;;;;;3.92;2.25;;;29.40;78.30;;;;;;5108511;28;20226;-74
2021/06/27 12:00:37;;;;;;;2.30;2.20;;;29.40;78.10;;;;;;5109336;28;20281;-74
2021/06/27 12:03:07;;;;;;;2.10;2.00;;;29.30;78.30;;;;;;5088146;28;20245;-73
2021/06/27 12:05:35;;;;;;;9.95;2.25;;;29.40;77.30;;;;;;5086705;28;20195;-74
2021/06/27 12:08:07;;;;;;;3.70;2.17;;;29.60;77.30;;;;;;5086305;28;20207;-74
2021/06/27 12:10:34;;;;;;;5.43;2.58;;;29.70;75.60;;;;;;5091497;28;20623;-73
2021/06/27 12:13:02;;;;;;;2.70;2.50;;;29.80;75.50;;;;;;5106283;28;20233;-74
2021/06/27 12:15:38;;;;;;;2.38;2.28;;;29.80;74.90;;;;;;5106722;28;20740;-74
2021/06/27 12:18:08;;;;;;;2.40;2.20;;;29.80;75.30;;;;;;5106398;28;20541;-74
2021/06/27 12:20:38;;;;;;;2.83;2.47;;;29.80;73.70;;;;;;5105400;28;20210;-74
2021/06/27 12:23:06;;;;;;;2.60;2.50;;;30.00;73.80;;;;;;5085590;28;20778;-74
2021/06/27 12:25:35;;;;;;;2.60;2.47;;;29.80;74.40;;;;;;5085953;28;20202;-74
2021/06/27 12:28:04;;;;;;;6.70;2.35;;;29.60;74.00;;;;;;5085834;28;20207;-75
2021/06/27 12:30:49;;;;;;;4.20;2.40;;;29.40;75.80;;;;;;5086100;28;20620;-75
2021/06/27 12:33:20;;;;;;;2.95;2.75;;;29.10;77.70;;;;;;5086393;28;20263;-76
2021/06/27 12:35:50;;;;;;;15.63;3.58;;;28.90;76.10;;;;;;5086083;28;20259;-74
2021/06/27 12:38:17;;;;;;;2.30;2.17;;;29.00;79.60;;;;;;5085591;28;20226;-74
2021/06/27 12:40:47;;;;;;;2.60;2.40;;;29.30;77.80;;;;;;5094801;28;20206;-75
2021/06/27 12:43:39;;;;;;;3.00;2.45;;;29.50;76.90;;;;;;5110883;28;20213;-74
2021/06/27 12:46:10;;;;;;;2.60;2.33;;;29.50;75.00;;;;;;5110451;28;20250;-74
2021/06/27 12:48:39;;;;;;;2.30;2.20;;;29.60;76.00;;;;;;5110191;28;20247;-74
2021/06/27 12:51:18;;;;;;;4.20;2.60;;;29.70;75.90;;;;;;5110246;28;20205;-74
2021/06/27 12:53:56;;;;;;;2.25;2.15;;;29.70;75.10;;;;;;5110509;28;20254;-74
2021/06/27 12:56:22;;;;;;;2.83;2.50;;;29.70;75.00;;;;;;5110650;28;20668;-74
2021/06/27 12:58:55;;;;;;;3.00;2.63;;;29.60;75.60;;;;;;5110852;28;20315;-75